sensor_id;sensor_type;location;lat;lon;timestamp;pressure;altitude;pressure_sealevel;temperature;humidity
20825;BME280;10573;50.936;6.978;2023-02-13T00:01:55;103318.84;;;11.18;63.66
20825;BME280;10573;50.936;6.978;2023-02-13T00:04:21;103323.78;;;11.27;63.45
20825;BME280;10573;50.936;6.978;2023-02-13T00:06:46;103325.53;;;11.28;63.64
20825;BME280;10573;50.936;6.978;2023-02-13T00:09:12;103320.22;;;11.25;63.73
20825;BME280;10573;50.936;6.978;2023-02-13T00:11:37;103324.13;;;11.37;63.29
20825;BME280;10573;50.936;6.978;2023-02-13T00:14:03;103319.78;;;11.17;63.77
20825;BME280;10573;50.936;6.978;2023-02-13T00:16:28;103318.84;;;11.34;63.33
20825;BME280;10573;50.936;6.978;2023-02-13T00:18:54;103329.69;;;11.35;63.48
20825;BME280;10573;50.936;6.978;2023-02-13T00:21:19;103312.25;;;11.38;63.30
20825;BME280;10573;50.936;6.978;2023-02-13T00:23:44;103310.31;;;11.24;63.73
20825;BME280;10573;50.936;6.978;2023-02-13T00:26:11;103313.56;;;11.15;63.73
20825;BME280;10573;50.936;6.978;2023-02-13T00:28:41;103318.75;;;11.35;63.20
20825;BME280;10573;50.936;6.978;2023-02-13T00:31:09;103306.22;;;10.99;64.05
20825;BME280;10573;50.936;6.978;2023-02-13T00:33:35;103312.56;;;11.16;63.77
20825;BME280;10573;50.936;6.978;2023-02-13T00:36:02;103303.41;;;11.17;63.45
20825;BME280;10573;50.936;6.978;2023-02-13T00:38:29;103300.44;;;11.05;63.67
20825;BME280;10573;50.936;6.978;2023-02-13T00:40:54;103305.91;;;11.21;63.76
20825;BME280;10573;50.936;6.978;2023-02-13T00:43:22;103296.19;;;11.16;63.63
20825;BME280;10573;50.936;6.978;2023-02-13T00:45:47;103300.97;;;11.28;63.09
20825;BME280;10573;50.936;6.978;2023-02-13T00:48:13;103299.53;;;11.21;63.21
20825;BME280;10573;50.936;6.978;2023-02-13T00:50:38;103300.78;;;11.15;63.36
20825;BME280;10573;50.936;6.978;2023-02-13T00:53:04;103297.09;;;11.16;63.28
20825;BME280;10573;50.936;6.978;2023-02-13T00:55:29;103287.94;;;11.17;63.31
20825;BME280;10573;50.936;6.978;2023-02-13T00:57:55;103288.00;;;11.16;63.51
20825;BME280;10573;50.936;6.978;2023-02-13T01:00:20;103283.16;;;11.05;63.32
20825;BME280;10573;50.936;6.978;2023-02-13T01:02:46;103271.91;;;11.11;63.08
20825;BME280;10573;50.936;6.978;2023-02-13T01:05:12;103281.50;;;11.18;63.11
20825;BME280;10573;50.936;6.978;2023-02-13T01:07:38;103284.91;;;11.06;63.26
20825;BME280;10573;50.936;6.978;2023-02-13T01:10:04;103279.75;;;11.01;63.43
20825;BME280;10573;50.936;6.978;2023-02-13T01:12:30;103281.66;;;10.99;63.55
20825;BME280;10573;50.936;6.978;2023-02-13T01:14:55;103284.75;;;10.93;63.51
20825;BME280;10573;50.936;6.978;2023-02-13T01:17:20;103281.41;;;11.04;63.55
20825;BME280;10573;50.936;6.978;2023-02-13T01:19:46;103273.50;;;11.15;63.34
20825;BME280;10573;50.936;6.978;2023-02-13T01:22:11;103277.00;;;11.01;63.58
20825;BME280;10573;50.936;6.978;2023-02-13T01:24:36;103283.50;;;10.99;63.75
20825;BME280;10573;50.936;6.978;2023-02-13T01:27:02;103274.31;;;11.17;63.25
20825;BME280;10573;50.936;6.978;2023-02-13T01:29:28;103273.31;;;11.18;62.98
20825;BME280;10573;50.936;6.978;2023-02-13T01:31:53;103277.06;;;10.84;63.82
20825;BME280;10573;50.936;6.978;2023-02-13T01:34:18;103282.47;;;11.01;63.76
20825;BME280;10573;50.936;6.978;2023-02-13T01:36:44;103281.94;;;11.11;63.56
20825;BME280;10573;50.936;6.978;2023-02-13T01:39:11;103279.66;;;11.19;63.16
20825;BME280;10573;50.936;6.978;2023-02-13T01:41:37;103280.81;;;11.15;62.80
20825;BME280;10573;50.936;6.978;2023-02-13T01:44:43;103271.00;;;10.95;63.37
20825;BME280;10573;50.936;6.978;2023-02-13T01:46:48;103272.09;;;11.08;63.35
20825;BME280;10573;50.936;6.978;2023-02-13T01:49:19;103267.28;;;10.96;63.69
20825;BME280;10573;50.936;6.978;2023-02-13T01:51:50;103268.00;;;10.99;63.73
20825;BME280;10573;50.936;6.978;2023-02-13T01:54:26;103271.53;;;10.85;64.11
20825;BME280;10573;50.936;6.978;2023-02-13T01:56:59;103273.84;;;10.93;64.11
20825;BME280;10573;50.936;6.978;2023-02-13T01:59:48;103268.38;;;10.93;63.81
20825;BME280;10573;50.936;6.978;2023-02-13T02:02:15;103277.53;;;11.08;63.64
20825;BME280;10573;50.936;6.978;2023-02-13T02:04:42;103281.16;;;11.08;63.56
20825;BME280;10573;50.936;6.978;2023-02-13T02:07:16;103274.63;;;10.95;64.14
20825;BME280;10573;50.936;6.978;2023-02-13T02:09:44;103273.78;;;11.11;63.42
20825;BME280;10573;50.936;6.978;2023-02-13T02:12:31;103275.94;;;11.20;63.19
20825;BME280;10573;50.936;6.978;2023-02-13T02:15:00;103278.03;;;10.83;63.98
20825;BME280;10573;50.936;6.978;2023-02-13T02:17:27;103283.88;;;11.08;63.46
20825;BME280;10573;50.936;6.978;2023-02-13T02:29:17;103277.00;;;11.01;63.54
20825;BME280;10573;50.936;6.978;2023-02-13T02:40:42;103281.06;;;10.77;64.30
20825;BME280;10573;50.936;6.978;2023-02-13T02:46:32;103269.16;;;10.95;63.93
20825;BME280;10573;50.936;6.978;2023-02-13T02:49:05;103270.16;;;10.77;64.38
20825;BME280;10573;50.936;6.978;2023-02-13T02:52:18;103264.16;;;10.70;64.62
20825;BME280;10573;50.936;6.978;2023-02-13T02:57:40;103274.09;;;11.04;63.40
20825;BME280;10573;50.936;6.978;2023-02-13T03:00:25;103278.22;;;11.12;63.23
20825;BME280;10573;50.936;6.978;2023-02-13T03:03:18;103275.22;;;10.84;63.76
20825;BME280;10573;50.936;6.978;2023-02-13T03:06:08;103276.75;;;11.06;63.50
20825;BME280;10573;50.936;6.978;2023-02-13T03:08:43;103272.75;;;10.80;63.70
20825;BME280;10573;50.936;6.978;2023-02-13T03:11:28;103275.38;;;10.81;64.02
20825;BME280;10573;50.936;6.978;2023-02-13T03:14:16;103284.53;;;10.80;63.97
20825;BME280;10573;50.936;6.978;2023-02-13T03:16:44;103277.13;;;10.82;63.85
20825;BME280;10573;50.936;6.978;2023-02-13T03:22:27;103275.41;;;10.97;63.82
20825;BME280;10573;50.936;6.978;2023-02-13T03:28:18;103271.53;;;10.85;64.01
20825;BME280;10573;50.936;6.978;2023-02-13T03:36:02;103281.25;;;10.73;64.23
20825;BME280;10573;50.936;6.978;2023-02-13T03:38:57;103280.47;;;10.87;64.10
20825;BME280;10573;50.936;6.978;2023-02-13T03:41:33;103280.38;;;10.73;64.28
20825;BME280;10573;50.936;6.978;2023-02-13T03:46:45;103282.94;;;10.76;64.26
20825;BME280;10573;50.936;6.978;2023-02-13T03:49:23;103285.25;;;10.84;63.69
20825;BME280;10573;50.936;6.978;2023-02-13T03:52:15;103276.56;;;10.75;64.25
20825;BME280;10573;50.936;6.978;2023-02-13T03:54:47;103281.88;;;10.79;64.11
20825;BME280;10573;50.936;6.978;2023-02-13T03:57:36;103273.44;;;10.83;63.92
20825;BME280;10573;50.936;6.978;2023-02-13T04:00:24;103279.44;;;10.90;63.82
20825;BME280;10573;50.936;6.978;2023-02-13T04:03:15;103283.16;;;10.71;64.11
20825;BME280;10573;50.936;6.978;2023-02-13T04:05:48;103267.56;;;10.57;64.43
20825;BME280;10573;50.936;6.978;2023-02-13T04:08:15;103271.13;;;10.60;64.34
20825;BME280;10573;50.936;6.978;2023-02-13T04:10:58;103269.47;;;10.73;63.85
20825;BME280;10573;50.936;6.978;2023-02-13T04:13:34;103276.28;;;10.64;64.26
20825;BME280;10573;50.936;6.978;2023-02-13T04:16:20;103279.31;;;10.75;64.07
20825;BME280;10573;50.936;6.978;2023-02-13T04:18:48;103280.47;;;10.87;63.81
20825;BME280;10573;50.936;6.978;2023-02-13T04:21:16;103273.44;;;10.50;64.45
20825;BME280;10573;50.936;6.978;2023-02-13T04:23:41;103279.25;;;10.77;63.94
20825;BME280;10573;50.936;6.978;2023-02-13T04:26:15;103286.25;;;10.65;64.11
20825;BME280;10573;50.936;6.978;2023-02-13T04:28:41;103286.75;;;10.56;64.03
20825;BME280;10573;50.936;6.978;2023-02-13T04:31:07;103285.91;;;10.71;63.79
20825;BME280;10573;50.936;6.978;2023-02-13T04:33:32;103284.41;;;10.48;64.36
20825;BME280;10573;50.936;6.978;2023-02-13T04:35:57;103287.22;;;10.47;64.05
20825;BME280;10573;50.936;6.978;2023-02-13T04:38:23;103285.31;;;10.49;64.11
20825;BME280;10573;50.936;6.978;2023-02-13T04:40:48;103291.09;;;10.43;64.25
20825;BME280;10573;50.936;6.978;2023-02-13T04:43:14;103286.38;;;10.62;63.78
20825;BME280;10573;50.936;6.978;2023-02-13T04:45:39;103283.56;;;10.48;64.34
20825;BME280;10573;50.936;6.978;2023-02-13T04:48:04;103284.41;;;10.48;64.22
20825;BME280;10573;50.936;6.978;2023-02-13T04:50:30;103279.06;;;10.47;64.11
20825;BME280;10573;50.936;6.978;2023-02-13T04:52:56;103282.41;;;10.52;63.83
20825;BME280;10573;50.936;6.978;2023-02-13T04:55:23;103272.38;;;10.52;63.96
20825;BME280;10573;50.936;6.978;2023-02-13T04:57:53;103266.56;;;10.43;63.93
20825;BME280;10573;50.936;6.978;2023-02-13T05:00:24;103273.34;;;10.51;64.01
20825;BME280;10573;50.936;6.978;2023-02-13T05:02:49;103269.28;;;10.43;64.25
20825;BME280;10573;50.936;6.978;2023-02-13T05:05:15;103273.88;;;10.42;64.03
20825;BME280;10573;50.936;6.978;2023-02-13T05:07:41;103274.72;;;10.43;63.75
20825;BME280;10573;50.936;6.978;2023-02-13T05:10:08;103275.50;;;10.27;64.41
20825;BME280;10573;50.936;6.978;2023-02-13T05:12:34;103284.22;;;10.35;64.26
20825;BME280;10573;50.936;6.978;2023-02-13T05:14:59;103278.25;;;10.45;64.03
20825;BME280;10573;50.936;6.978;2023-02-13T05:17:24;103274.72;;;10.25;64.47
20825;BME280;10573;50.936;6.978;2023-02-13T05:19:50;103278.00;;;10.32;64.53
20825;BME280;10573;50.936;6.978;2023-02-13T05:22:15;103272.72;;;10.29;64.39
20825;BME280;10573;50.936;6.978;2023-02-13T05:24:59;103274.53;;;10.11;64.85
20825;BME280;10573;50.936;6.978;2023-02-13T05:27:24;103274.47;;;10.12;65.23
20825;BME280;10573;50.936;6.978;2023-02-13T05:29:50;103277.56;;;9.87;65.33
20825;BME280;10573;50.936;6.978;2023-02-13T05:32:15;103283.38;;;10.16;64.77
20825;BME280;10573;50.936;6.978;2023-02-13T05:34:40;103283.06;;;10.04;65.24
20825;BME280;10573;50.936;6.978;2023-02-13T05:37:06;103281.78;;;10.12;65.26
20825;BME280;10573;50.936;6.978;2023-02-13T05:39:31;103279.69;;;10.17;64.85
20825;BME280;10573;50.936;6.978;2023-02-13T05:41:56;103283.44;;;10.14;65.08
20825;BME280;10573;50.936;6.978;2023-02-13T05:44:22;103280.47;;;10.01;64.89
20825;BME280;10573;50.936;6.978;2023-02-13T05:46:47;103281.03;;;10.08;64.99
20825;BME280;10573;50.936;6.978;2023-02-13T05:49:14;103282.31;;;10.18;64.78
20825;BME280;10573;50.936;6.978;2023-02-13T05:51:40;103275.66;;;9.89;65.38
20825;BME280;10573;50.936;6.978;2023-02-13T05:54:06;103283.00;;;9.87;65.47
20825;BME280;10573;50.936;6.978;2023-02-13T05:56:32;103280.78;;;9.78;65.50
20825;BME280;10573;50.936;6.978;2023-02-13T05:58:57;103284.31;;;9.97;65.30
20825;BME280;10573;50.936;6.978;2023-02-13T06:01:23;103292.47;;;9.80;65.63
20825;BME280;10573;50.936;6.978;2023-02-13T06:03:49;103288.00;;;9.96;65.31
20825;BME280;10573;50.936;6.978;2023-02-13T06:06:15;103285.41;;;9.76;65.74
20825;BME280;10573;50.936;6.978;2023-02-13T06:08:40;103286.41;;;9.55;66.39
20825;BME280;10573;50.936;6.978;2023-02-13T06:11:07;103289.75;;;9.80;65.63
20825;BME280;10573;50.936;6.978;2023-02-13T06:13:32;103294.84;;;9.68;65.81
20825;BME280;10573;50.936;6.978;2023-02-13T06:15:58;103292.34;;;9.64;66.19
20825;BME280;10573;50.936;6.978;2023-02-13T06:18:23;103293.25;;;9.64;66.14
20825;BME280;10573;50.936;6.978;2023-02-13T06:20:49;103291.44;;;9.46;66.57
20825;BME280;10573;50.936;6.978;2023-02-13T06:23:14;103291.19;;;9.50;66.18
20825;BME280;10573;50.936;6.978;2023-02-13T06:25:40;103290.91;;;9.37;67.02
20825;BME280;10573;50.936;6.978;2023-02-13T06:28:06;103294.50;;;9.57;66.37
20825;BME280;10573;50.936;6.978;2023-02-13T06:30:31;103290.25;;;9.51;66.21
20825;BME280;10573;50.936;6.978;2023-02-13T06:32:57;103283.09;;;9.49;66.41
20825;BME280;10573;50.936;6.978;2023-02-13T06:35:22;103281.00;;;9.36;66.55
20825;BME280;10573;50.936;6.978;2023-02-13T06:37:48;103289.88;;;9.59;66.40
20825;BME280;10573;50.936;6.978;2023-02-13T06:40:14;103285.75;;;9.50;68.19
20825;BME280;10573;50.936;6.978;2023-02-13T06:42:41;103288.53;;;9.49;66.72
20825;BME280;10573;50.936;6.978;2023-02-13T06:45:07;103287.13;;;9.59;66.00
20825;BME280;10573;50.936;6.978;2023-02-13T06:47:32;103286.19;;;9.41;66.27
20825;BME280;10573;50.936;6.978;2023-02-13T06:49:58;103290.91;;;9.56;65.90
20825;BME280;10573;50.936;6.978;2023-02-13T06:52:23;103294.88;;;9.30;66.58
20825;BME280;10573;50.936;6.978;2023-02-13T06:54:49;103293.19;;;9.28;66.54
20825;BME280;10573;50.936;6.978;2023-02-13T06:57:15;103289.00;;;9.20;66.87
20825;BME280;10573;50.936;6.978;2023-02-13T06:59:40;103288.78;;;9.25;66.64
20825;BME280;10573;50.936;6.978;2023-02-13T07:02:08;103285.53;;;9.36;66.34
20825;BME280;10573;50.936;6.978;2023-02-13T07:04:34;103289.00;;;9.20;67.36
20825;BME280;10573;50.936;6.978;2023-02-13T07:07:00;103278.56;;;9.30;66.55
20825;BME280;10573;50.936;6.978;2023-02-13T07:09:25;103284.00;;;9.30;66.53
20825;BME280;10573;50.936;6.978;2023-02-13T07:11:51;103288.78;;;9.25;66.36
20825;BME280;10573;50.936;6.978;2023-02-13T07:14:16;103287.75;;;9.28;66.49
20825;BME280;10573;50.936;6.978;2023-02-13T07:16:41;103291.50;;;9.25;67.78
20825;BME280;10573;50.936;6.978;2023-02-13T07:19:07;103289.00;;;9.39;66.97
20825;BME280;10573;50.936;6.978;2023-02-13T07:21:32;103288.31;;;9.34;66.40
20825;BME280;10573;50.936;6.978;2023-02-13T07:23:58;103290.75;;;9.40;66.11
20825;BME280;10573;50.936;6.978;2023-02-13T07:26:23;103294.34;;;9.41;65.90
20825;BME280;10573;50.936;6.978;2023-02-13T07:28:51;103291.19;;;9.50;65.68
20825;BME280;10573;50.936;6.978;2023-02-13T07:31:16;103291.50;;;9.25;66.07
20825;BME280;10573;50.936;6.978;2023-02-13T07:33:42;103293.50;;;9.21;66.04
20825;BME280;10573;50.936;6.978;2023-02-13T07:36:07;103291.50;;;9.44;65.99
20825;BME280;10573;50.936;6.978;2023-02-13T07:38:32;103288.16;;;9.56;65.40
20825;BME280;10573;50.936;6.978;2023-02-13T07:40:59;103292.16;;;9.86;64.44
20825;BME280;10573;50.936;6.978;2023-02-13T07:43:25;103294.81;;;9.87;64.44
20825;BME280;10573;50.936;6.978;2023-02-13T07:45:50;103295.78;;;10.21;63.46
20825;BME280;10573;50.936;6.978;2023-02-13T07:48:22;103298.91;;;10.31;63.08
20825;BME280;10573;50.936;6.978;2023-02-13T07:50:48;103294.88;;;10.73;62.03
20825;BME280;10573;50.936;6.978;2023-02-13T07:53:13;103295.28;;;10.99;60.89
20825;BME280;10573;50.936;6.978;2023-02-13T07:55:39;103299.56;;;11.37;60.13
20825;BME280;10573;50.936;6.978;2023-02-13T07:58:04;103292.84;;;11.58;59.09
20825;BME280;10573;50.936;6.978;2023-02-13T08:00:30;103296.22;;;11.48;59.08
20825;BME280;10573;50.936;6.978;2023-02-13T08:02:58;103302.38;;;11.67;58.34
20825;BME280;10573;50.936;6.978;2023-02-13T08:05:24;103291.34;;;12.01;57.80
20825;BME280;10573;50.936;6.978;2023-02-13T08:07:49;103290.63;;;11.97;57.39
20825;BME280;10573;50.936;6.978;2023-02-13T08:10:15;103297.47;;;12.04;56.91
20825;BME280;10573;50.936;6.978;2023-02-13T08:12:59;103295.72;;;12.19;56.90
20825;BME280;10573;50.936;6.978;2023-02-13T08:15:24;103293.81;;;12.50;55.78
20825;BME280;10573;50.936;6.978;2023-02-13T08:17:50;103293.16;;;12.61;55.26
20825;BME280;10573;50.936;6.978;2023-02-13T08:20:15;103302.91;;;12.51;55.58
20825;BME280;10573;50.936;6.978;2023-02-13T08:22:41;103299.97;;;12.68;54.82
20825;BME280;10573;50.936;6.978;2023-02-13T08:25:06;103298.22;;;12.67;55.23
20825;BME280;10573;50.936;6.978;2023-02-13T08:27:32;103297.44;;;12.65;55.15
20825;BME280;10573;50.936;6.978;2023-02-13T08:29:58;103302.44;;;12.87;55.08
20825;BME280;10573;50.936;6.978;2023-02-13T08:32:24;103304.47;;;12.98;53.91
20825;BME280;10573;50.936;6.978;2023-02-13T08:34:50;103294.88;;;13.49;53.40
20825;BME280;10573;50.936;6.978;2023-02-13T08:37:16;103296.66;;;13.50;52.44
20825;BME280;10573;50.936;6.978;2023-02-13T08:39:42;103290.84;;;13.54;52.17
20825;BME280;10573;50.936;6.978;2023-02-13T08:42:07;103303.41;;;13.15;53.50
20825;BME280;10573;50.936;6.978;2023-02-13T08:44:33;103294.31;;;13.71;52.64
20825;BME280;10573;50.936;6.978;2023-02-13T08:46:58;103294.28;;;13.29;52.96
20825;BME280;10573;50.936;6.978;2023-02-13T08:49:28;103309.38;;;12.93;53.98
20825;BME280;10573;50.936;6.978;2023-02-13T08:51:54;103315.75;;;12.34;55.41
20825;BME280;10573;50.936;6.978;2023-02-13T08:54:19;103308.16;;;11.93;56.61
20825;BME280;10573;50.936;6.978;2023-02-13T08:56:45;103314.97;;;11.38;58.02
20825;BME280;10573;50.936;6.978;2023-02-13T08:59:10;103307.13;;;11.48;58.18
20825;BME280;10573;50.936;6.978;2023-02-13T09:01:35;103311.97;;;11.58;58.20
20825;BME280;10573;50.936;6.978;2023-02-13T09:04:01;103312.97;;;11.41;58.29
20825;BME280;10573;50.936;6.978;2023-02-13T09:06:26;103312.06;;;11.41;58.57
20825;BME280;10573;50.936;6.978;2023-02-13T09:08:53;103302.56;;;11.32;58.57
20825;BME280;10573;50.936;6.978;2023-02-13T09:11:18;103302.81;;;11.28;58.62
20825;BME280;10573;50.936;6.978;2023-02-13T09:13:48;103308.72;;;11.36;58.44
20825;BME280;10573;50.936;6.978;2023-02-13T09:16:14;103314.44;;;11.31;58.69
20825;BME280;10573;50.936;6.978;2023-02-13T09:18:39;103306.97;;;11.19;58.35
20825;BME280;10573;50.936;6.978;2023-02-13T09:21:07;103302.03;;;11.25;58.57
20825;BME280;10573;50.936;6.978;2023-02-13T09:23:35;103306.78;;;11.22;58.16
20825;BME280;10573;50.936;6.978;2023-02-13T09:26:01;103308.44;;;11.08;58.62
20825;BME280;10573;50.936;6.978;2023-02-13T09:28:32;103298.84;;;11.33;58.02
20825;BME280;10573;50.936;6.978;2023-02-13T09:30:58;103310.31;;;11.24;58.05
20825;BME280;10573;50.936;6.978;2023-02-13T09:33:25;103299.31;;;11.25;57.97
20825;BME280;10573;50.936;6.978;2023-02-13T09:35:50;103301.69;;;11.48;57.83
20825;BME280;10573;50.936;6.978;2023-02-13T09:38:16;103296.75;;;11.38;57.59
20825;BME280;10573;50.936;6.978;2023-02-13T09:40:49;103306.16;;;11.33;57.62
20825;BME280;10573;50.936;6.978;2023-02-13T09:43:31;103296.56;;;11.25;57.93
20825;BME280;10573;50.936;6.978;2023-02-13T09:46:03;103307.75;;;11.37;58.00
20825;BME280;10573;50.936;6.978;2023-02-13T09:48:35;103303.19;;;11.37;57.60
20825;BME280;10573;50.936;6.978;2023-02-13T09:51:02;103298.16;;;11.46;57.64
20825;BME280;10573;50.936;6.978;2023-02-13T09:53:28;103299.22;;;11.59;56.86
20825;BME280;10573;50.936;6.978;2023-02-13T09:56:12;103298.69;;;11.68;56.96
20825;BME280;10573;50.936;6.978;2023-02-13T09:58:46;103303.59;;;11.78;56.38
20825;BME280;10573;50.936;6.978;2023-02-13T10:04:10;103302.53;;;11.96;56.27
20825;BME280;10573;50.936;6.978;2023-02-13T10:06:42;103295.56;;;11.74;56.46
20825;BME280;10573;50.936;6.978;2023-02-13T10:09:36;103302.28;;;11.85;56.35
20825;BME280;10573;50.936;6.978;2023-02-13T10:15:21;103302.81;;;12.22;55.40
20825;BME280;10573;50.936;6.978;2023-02-13T10:18:18;103294.75;;;12.35;54.72
20825;BME280;10573;50.936;6.978;2023-02-13T10:20:49;103298.94;;;12.26;54.91
20825;BME280;10573;50.936;6.978;2023-02-13T10:23:34;103288.47;;;12.18;55.23
20825;BME280;10573;50.936;6.978;2023-02-13T10:28:52;103294.06;;;12.01;55.40
20825;BME280;10573;50.936;6.978;2023-02-13T10:31:39;103292.38;;;12.14;55.04
20825;BME280;10573;50.936;6.978;2023-02-13T10:34:13;103298.59;;;12.47;54.68
20825;BME280;10573;50.936;6.978;2023-02-13T10:36:43;103292.06;;;12.19;54.56
20825;BME280;10573;50.936;6.978;2023-02-13T10:39:22;103302.09;;;12.34;54.63
20825;BME280;10573;50.936;6.978;2023-02-13T10:41:53;103296.47;;;12.52;53.94
20825;BME280;10573;50.936;6.978;2023-02-13T10:47:17;103293.31;;;12.58;53.81
20825;BME280;10573;50.936;6.978;2023-02-13T10:55:09;103285.00;;;12.59;53.25
20825;BME280;10573;50.936;6.978;2023-02-13T11:00:36;103288.47;;;12.78;53.17
20825;BME280;10573;50.936;6.978;2023-02-13T11:03:03;103276.72;;;12.90;52.38
20825;BME280;10573;50.936;6.978;2023-02-13T11:05:46;103284.25;;;13.01;52.42
20825;BME280;10573;50.936;6.978;2023-02-13T11:08:32;103273.59;;;13.10;52.27
20825;BME280;10573;50.936;6.978;2023-02-13T11:10:58;103262.84;;;13.07;52.24
20825;BME280;10573;50.936;6.978;2023-02-13T11:13:25;103257.50;;;13.33;51.81
20825;BME280;10573;50.936;6.978;2023-02-13T11:16:01;103253.63;;;13.37;51.45
20825;BME280;10573;50.936;6.978;2023-02-13T11:18:29;103249.91;;;13.38;51.39
20825;BME280;10573;50.936;6.978;2023-02-13T11:21:32;103244.97;;;13.58;51.37
20825;BME280;10573;50.936;6.978;2023-02-13T11:23:59;103240.91;;;13.64;51.12
20825;BME280;10573;50.936;6.978;2023-02-13T11:26:35;103239.94;;;13.65;50.67
20825;BME280;10573;50.936;6.978;2023-02-13T11:29:05;103236.16;;;13.53;51.13
20825;BME280;10573;50.936;6.978;2023-02-13T11:31:40;103233.44;;;13.93;50.50
20825;BME280;10573;50.936;6.978;2023-02-13T11:36:50;103226.91;;;13.68;50.40
20825;BME280;10573;50.936;6.978;2023-02-13T11:39:21;103227.63;;;13.85;50.03
20825;BME280;10573;50.936;6.978;2023-02-13T11:41:47;103222.72;;;13.90;50.32
20825;BME280;10573;50.936;6.978;2023-02-13T11:44:30;103221.41;;;14.08;50.17
20825;BME280;10573;50.936;6.978;2023-02-13T11:47:00;103215.28;;;14.18;49.41
20825;BME280;10573;50.936;6.978;2023-02-13T11:49:29;103211.00;;;14.26;49.13
20825;BME280;10573;50.936;6.978;2023-02-13T11:52:00;103203.88;;;14.24;49.27
20825;BME280;10573;50.936;6.978;2023-02-13T11:54:32;103196.19;;;14.42;48.97
20825;BME280;10573;50.936;6.978;2023-02-13T11:59:42;103191.25;;;14.47;49.16
20825;BME280;10573;50.936;6.978;2023-02-13T12:02:18;103188.94;;;14.54;49.01
20825;BME280;10573;50.936;6.978;2023-02-13T12:04:46;103182.81;;;14.63;48.82
20825;BME280;10573;50.936;6.978;2023-02-13T12:07:31;103180.00;;;14.89;48.38
20825;BME280;10573;50.936;6.978;2023-02-13T12:10:10;103175.91;;;15.07;47.84
20825;BME280;10573;50.936;6.978;2023-02-13T12:13:04;103165.69;;;15.09;46.95
20825;BME280;10573;50.936;6.978;2023-02-13T12:15:35;103171.25;;;15.45;46.66
20825;BME280;10573;50.936;6.978;2023-02-13T12:34:41;103118.91;;;24.14;30.31
20825;BME280;10573;50.936;6.978;2023-02-13T12:40:07;103121.38;;;24.01;29.92
20825;BME280;10573;50.936;6.978;2023-02-13T12:42:37;103119.72;;;24.87;28.90
20825;BME280;10573;50.936;6.978;2023-02-13T12:48:20;103110.47;;;25.41;27.79
20825;BME280;10573;50.936;6.978;2023-02-13T12:50:26;103111.44;;;25.72;27.83
20825;BME280;10573;50.936;6.978;2023-02-13T13:01:03;103103.41;;;27.46;25.00
20825;BME280;10573;50.936;6.978;2023-02-13T13:03:43;103101.81;;;27.59;24.70
20825;BME280;10573;50.936;6.978;2023-02-13T13:06:36;103095.06;;;27.32;25.28
20825;BME280;10573;50.936;6.978;2023-02-13T13:22:56;103084.63;;;28.32;22.85
20825;BME280;10573;50.936;6.978;2023-02-13T13:25:33;103083.00;;;28.03;23.00
20825;BME280;10573;50.936;6.978;2023-02-13T13:28:03;103083.94;;;27.88;23.57
20825;BME280;10573;50.936;6.978;2023-02-13T13:30:33;103084.06;;;28.02;23.44
20825;BME280;10573;50.936;6.978;2023-02-13T13:33:03;103074.75;;;27.44;23.87
20825;BME280;10573;50.936;6.978;2023-02-13T13:35:31;103072.69;;;27.32;24.33
20825;BME280;10573;50.936;6.978;2023-02-13T13:38:12;103078.97;;;27.62;24.30
20825;BME280;10573;50.936;6.978;2023-02-13T13:40:43;103063.34;;;27.46;24.31
20825;BME280;10573;50.936;6.978;2023-02-13T13:43:53;103074.00;;;27.86;23.87
20825;BME280;10573;50.936;6.978;2023-02-13T13:49:16;103068.13;;;28.51;23.05
20825;BME280;10573;50.936;6.978;2023-02-13T13:51:44;103062.66;;;27.66;23.29
20825;BME280;10573;50.936;6.978;2023-02-13T13:57:03;103056.00;;;27.02;23.86
20825;BME280;10573;50.936;6.978;2023-02-13T14:07:39;103046.66;;;28.23;22.68
20825;BME280;10573;50.936;6.978;2023-02-13T14:12:49;103045.84;;;27.37;23.58
20825;BME280;10573;50.936;6.978;2023-02-13T14:20:50;103045.75;;;25.15;25.46
20825;BME280;10573;50.936;6.978;2023-02-13T14:28:42;103046.81;;;26.20;25.15
20825;BME280;10573;50.936;6.978;2023-02-13T14:31:32;103039.34;;;26.57;24.41
20825;BME280;10573;50.936;6.978;2023-02-13T14:34:00;103037.03;;;26.97;23.76
20825;BME280;10573;50.936;6.978;2023-02-13T14:36:27;103026.78;;;26.68;24.06
20825;BME280;10573;50.936;6.978;2023-02-13T14:38:57;103033.81;;;27.22;23.37
20825;BME280;10573;50.936;6.978;2023-02-13T14:41:40;103034.03;;;26.62;23.91
20825;BME280;10573;50.936;6.978;2023-02-13T14:44:07;103034.09;;;26.84;23.60
20825;BME280;10573;50.936;6.978;2023-02-13T14:46:40;103033.34;;;26.75;23.59
20825;BME280;10573;50.936;6.978;2023-02-13T14:49:16;103035.16;;;26.83;23.60
20825;BME280;10573;50.936;6.978;2023-02-13T14:51:44;103037.16;;;26.89;23.58
20825;BME280;10573;50.936;6.978;2023-02-13T14:54:14;103040.75;;;26.83;23.93
20825;BME280;10573;50.936;6.978;2023-02-13T14:56:43;103032.78;;;27.01;23.80
20825;BME280;10573;50.936;6.978;2023-02-13T14:59:11;103031.16;;;26.92;23.66
20825;BME280;10573;50.936;6.978;2023-02-13T15:01:42;103031.56;;;27.10;23.53
20825;BME280;10573;50.936;6.978;2023-02-13T15:04:21;103026.31;;;25.83;24.76
20825;BME280;10573;50.936;6.978;2023-02-13T15:06:48;103030.03;;;25.60;24.64
20825;BME280;10573;50.936;6.978;2023-02-13T15:09:24;103025.63;;;26.10;24.20
20825;BME280;10573;50.936;6.978;2023-02-13T15:11:51;103023.31;;;25.69;25.24
20825;BME280;10573;50.936;6.978;2023-02-13T15:14:35;103022.94;;;26.32;24.13
20825;BME280;10573;50.936;6.978;2023-02-13T15:17:02;103020.03;;;26.77;23.69
20825;BME280;10573;50.936;6.978;2023-02-13T15:19:30;103028.03;;;26.28;24.22
20825;BME280;10573;50.936;6.978;2023-02-13T15:21:57;103017.84;;;25.91;24.37
20825;BME280;10573;50.936;6.978;2023-02-13T15:24:23;103015.31;;;25.28;25.08